sensor_id;sensor_type;location;lat;lon;timestamp;temperature;humidity
33715;DHT22;20043;50.998;4.754;2022-11-20T00:01:47;5.60;99.90
33715;DHT22;20043;50.998;4.754;2022-11-20T00:04:13;5.60;99.90
33715;DHT22;20043;50.998;4.754;2022-11-20T00:06:38;5.60;99.90
33715;DHT22;20043;50.998;4.754;2022-11-20T00:09:04;5.90;99.90
33715;DHT22;20043;50.998;4.754;2022-11-20T00:11:30;6.10;99.90
33715;DHT22;20043;50.998;4.754;2022-11-20T00:13:57;6.30;99.90
33715;DHT22;20043;50.998;4.754;2022-11-20T00:16:24;6.50;99.90
33715;DHT22;20043;50.998;4.754;2022-11-20T00:18:50;6.50;99.90
33715;DHT22;20043;50.998;4.754;2022-11-20T00:21:20;6.60;99.90
33715;DHT22;20043;50.998;4.754;2022-11-20T00:23:46;6.60;99.90
33715;DHT22;20043;50.998;4.754;2022-11-20T00:26:12;6.50;99.90
33715;DHT22;20043;50.998;4.754;2022-11-20T00:28:39;6.30;99.90
33715;DHT22;20043;50.998;4.754;2022-11-20T00:31:06;6.10;99.90
33715;DHT22;20043;50.998;4.754;2022-11-20T00:33:32;5.90;99.90
33715;DHT22;20043;50.998;4.754;2022-11-20T00:36:04;6.00;99.90
33715;DHT22;20043;50.998;4.754;2022-11-20T00:38:31;6.10;99.90
33715;DHT22;20043;50.998;4.754;2022-11-20T00:40:57;6.20;99.90
33715;DHT22;20043;50.998;4.754;2022-11-20T00:43:23;6.10;99.90
33715;DHT22;20043;50.998;4.754;2022-11-20T00:45:48;6.20;99.90
33715;DHT22;20043;50.998;4.754;2022-11-20T00:48:14;6.40;99.90
33715;DHT22;20043;50.998;4.754;2022-11-20T00:50:40;6.60;99.90
33715;DHT22;20043;50.998;4.754;2022-11-20T00:53:06;6.70;99.90
33715;DHT22;20043;50.998;4.754;2022-11-20T00:55:31;6.60;99.90
33715;DHT22;20043;50.998;4.754;2022-11-20T00:57:57;6.60;99.90
33715;DHT22;20043;50.998;4.754;2022-11-20T01:00:22;6.60;99.90
33715;DHT22;20043;50.998;4.754;2022-11-20T01:02:47;6.40;99.90
33715;DHT22;20043;50.998;4.754;2022-11-20T01:05:13;5.90;99.90
33715;DHT22;20043;50.998;4.754;2022-11-20T01:07:38;6.00;99.90
33715;DHT22;20043;50.998;4.754;2022-11-20T01:10:04;6.10;99.90
33715;DHT22;20043;50.998;4.754;2022-11-20T01:12:29;6.30;99.90
33715;DHT22;20043;50.998;4.754;2022-11-20T01:14:55;6.20;99.90
33715;DHT22;20043;50.998;4.754;2022-11-20T01:17:20;6.40;99.90
33715;DHT22;20043;50.998;4.754;2022-11-20T01:19:48;6.30;99.90
33715;DHT22;20043;50.998;4.754;2022-11-20T01:22:13;6.30;99.90
33715;DHT22;20043;50.998;4.754;2022-11-20T01:24:39;6.40;99.90
33715;DHT22;20043;50.998;4.754;2022-11-20T01:27:04;6.40;99.90
33715;DHT22;20043;50.998;4.754;2022-11-20T01:29:30;6.50;99.90
33715;DHT22;20043;50.998;4.754;2022-11-20T01:31:55;6.50;99.90
33715;DHT22;20043;50.998;4.754;2022-11-20T01:34:21;6.50;99.90
33715;DHT22;20043;50.998;4.754;2022-11-20T01:36:47;6.60;99.90
33715;DHT22;20043;50.998;4.754;2022-11-20T01:39:14;6.70;99.90
33715;DHT22;20043;50.998;4.754;2022-11-20T01:41:40;6.60;99.90
33715;DHT22;20043;50.998;4.754;2022-11-20T01:47:09;6.80;99.90
33715;DHT22;20043;50.998;4.754;2022-11-20T01:49:37;6.70;99.90
33715;DHT22;20043;50.998;4.754;2022-11-20T01:52:25;6.60;99.90
33715;DHT22;20043;50.998;4.754;2022-11-20T01:54:56;6.70;99.90
33715;DHT22;20043;50.998;4.754;2022-11-20T01:57:23;6.70;99.90
33715;DHT22;20043;50.998;4.754;2022-11-20T01:59:56;6.70;99.90
33715;DHT22;20043;50.998;4.754;2022-11-20T02:02:22;6.70;99.90
33715;DHT22;20043;50.998;4.754;2022-11-20T02:04:48;6.60;99.90
33715;DHT22;20043;50.998;4.754;2022-11-20T02:07:16;6.60;99.90
33715;DHT22;20043;50.998;4.754;2022-11-20T02:09:42;6.60;99.90
33715;DHT22;20043;50.998;4.754;2022-11-20T02:12:08;6.30;99.90
33715;DHT22;20043;50.998;4.754;2022-11-20T02:14:53;6.20;99.90
33715;DHT22;20043;50.998;4.754;2022-11-20T02:17:18;6.30;99.90
33715;DHT22;20043;50.998;4.754;2022-11-20T02:19:45;6.40;99.90
33715;DHT22;20043;50.998;4.754;2022-11-20T02:24:38;6.50;99.90
33715;DHT22;20043;50.998;4.754;2022-11-20T02:27:05;6.50;99.90
33715;DHT22;20043;50.998;4.754;2022-11-20T02:29:34;6.40;99.90
33715;DHT22;20043;50.998;4.754;2022-11-20T02:32:00;6.50;99.90
33715;DHT22;20043;50.998;4.754;2022-11-20T02:34:27;6.60;99.90
33715;DHT22;20043;50.998;4.754;2022-11-20T02:36:52;6.70;99.90
33715;DHT22;20043;50.998;4.754;2022-11-20T02:39:18;6.60;99.90
33715;DHT22;20043;50.998;4.754;2022-11-20T02:41:44;6.50;99.90
33715;DHT22;20043;50.998;4.754;2022-11-20T02:44:10;6.40;99.90
33715;DHT22;20043;50.998;4.754;2022-11-20T02:46:36;6.40;99.90
33715;DHT22;20043;50.998;4.754;2022-11-20T02:49:02;6.30;99.90
33715;DHT22;20043;50.998;4.754;2022-11-20T02:51:28;6.40;99.90
33715;DHT22;20043;50.998;4.754;2022-11-20T02:53:53;6.50;99.90
33715;DHT22;20043;50.998;4.754;2022-11-20T02:56:19;6.40;99.90
33715;DHT22;20043;50.998;4.754;2022-11-20T02:58:45;6.50;99.90
33715;DHT22;20043;50.998;4.754;2022-11-20T03:01:10;6.60;99.90
33715;DHT22;20043;50.998;4.754;2022-11-20T03:03:36;6.40;99.90
33715;DHT22;20043;50.998;4.754;2022-11-20T03:06:01;6.40;99.90
33715;DHT22;20043;50.998;4.754;2022-11-20T03:08:27;6.40;99.90
33715;DHT22;20043;50.998;4.754;2022-11-20T03:10:53;6.40;99.90
33715;DHT22;20043;50.998;4.754;2022-11-20T03:13:19;6.30;99.90
33715;DHT22;20043;50.998;4.754;2022-11-20T03:15:44;6.30;99.90
33715;DHT22;20043;50.998;4.754;2022-11-20T03:18:10;6.30;99.90
33715;DHT22;20043;50.998;4.754;2022-11-20T03:20:35;6.40;99.90
33715;DHT22;20043;50.998;4.754;2022-11-20T03:23:01;6.40;99.90
33715;DHT22;20043;50.998;4.754;2022-11-20T03:25:26;6.40;99.90
33715;DHT22;20043;50.998;4.754;2022-11-20T03:27:52;6.50;99.90
33715;DHT22;20043;50.998;4.754;2022-11-20T03:30:18;6.50;99.90
33715;DHT22;20043;50.998;4.754;2022-11-20T03:32:44;6.50;99.90
33715;DHT22;20043;50.998;4.754;2022-11-20T03:35:09;6.50;99.90
33715;DHT22;20043;50.998;4.754;2022-11-20T03:37:35;6.50;99.90
33715;DHT22;20043;50.998;4.754;2022-11-20T03:40:00;6.50;99.90
33715;DHT22;20043;50.998;4.754;2022-11-20T03:42:26;6.40;99.90
33715;DHT22;20043;50.998;4.754;2022-11-20T03:45:10;6.40;99.90
33715;DHT22;20043;50.998;4.754;2022-11-20T03:47:36;6.50;99.90
33715;DHT22;20043;50.998;4.754;2022-11-20T03:50:01;6.40;99.90
33715;DHT22;20043;50.998;4.754;2022-11-20T03:52:27;6.50;99.90
33715;DHT22;20043;50.998;4.754;2022-11-20T03:54:52;6.50;99.90
33715;DHT22;20043;50.998;4.754;2022-11-20T03:57:18;6.50;99.90
33715;DHT22;20043;50.998;4.754;2022-11-20T03:59:43;6.30;99.90
33715;DHT22;20043;50.998;4.754;2022-11-20T04:02:09;6.30;99.90
33715;DHT22;20043;50.998;4.754;2022-11-20T04:04:34;6.20;99.90
33715;DHT22;20043;50.998;4.754;2022-11-20T04:07:00;6.20;99.90
33715;DHT22;20043;50.998;4.754;2022-11-20T04:09:25;6.20;99.90
33715;DHT22;20043;50.998;4.754;2022-11-20T04:11:51;6.30;99.90
33715;DHT22;20043;50.998;4.754;2022-11-20T04:14:16;6.40;99.90
33715;DHT22;20043;50.998;4.754;2022-11-20T04:16:42;6.40;99.90
33715;DHT22;20043;50.998;4.754;2022-11-20T04:19:12;6.40;99.90
33715;DHT22;20043;50.998;4.754;2022-11-20T04:21:38;6.40;99.90
33715;DHT22;20043;50.998;4.754;2022-11-20T04:24:03;6.30;99.90
33715;DHT22;20043;50.998;4.754;2022-11-20T04:26:29;6.30;99.90
33715;DHT22;20043;50.998;4.754;2022-11-20T04:28:55;6.40;99.90
33715;DHT22;20043;50.998;4.754;2022-11-20T04:31:25;6.50;99.90
33715;DHT22;20043;50.998;4.754;2022-11-20T04:33:51;6.50;99.90
33715;DHT22;20043;50.998;4.754;2022-11-20T04:36:21;6.30;99.90
33715;DHT22;20043;50.998;4.754;2022-11-20T04:38:50;6.30;99.90
33715;DHT22;20043;50.998;4.754;2022-11-20T04:41:16;6.30;99.90
33715;DHT22;20043;50.998;4.754;2022-11-20T04:43:45;6.30;99.90
33715;DHT22;20043;50.998;4.754;2022-11-20T04:46:11;6.20;99.90
33715;DHT22;20043;50.998;4.754;2022-11-20T04:48:36;6.30;99.90
33715;DHT22;20043;50.998;4.754;2022-11-20T04:51:02;6.40;99.90
33715;DHT22;20043;50.998;4.754;2022-11-20T04:53:28;6.50;99.90
33715;DHT22;20043;50.998;4.754;2022-11-20T04:55:58;6.50;99.90
33715;DHT22;20043;50.998;4.754;2022-11-20T04:58:24;6.50;99.90
33715;DHT22;20043;50.998;4.754;2022-11-20T05:00:49;6.50;99.90
33715;DHT22;20043;50.998;4.754;2022-11-20T05:03:16;6.60;99.90
33715;DHT22;20043;50.998;4.754;2022-11-20T05:05:42;6.60;99.90
33715;DHT22;20043;50.998;4.754;2022-11-20T05:08:07;6.60;99.90
33715;DHT22;20043;50.998;4.754;2022-11-20T05:10:33;6.50;99.90
33715;DHT22;20043;50.998;4.754;2022-11-20T05:12:58;6.50;99.90
33715;DHT22;20043;50.998;4.754;2022-11-20T05:15:24;6.60;99.90
33715;DHT22;20043;50.998;4.754;2022-11-20T05:17:50;6.80;99.90
33715;DHT22;20043;50.998;4.754;2022-11-20T05:20:16;6.80;99.90
33715;DHT22;20043;50.998;4.754;2022-11-20T05:22:41;6.70;99.90
33715;DHT22;20043;50.998;4.754;2022-11-20T05:25:07;6.70;99.90
33715;DHT22;20043;50.998;4.754;2022-11-20T05:27:33;6.70;99.90
33715;DHT22;20043;50.998;4.754;2022-11-20T05:29:58;6.70;99.90
33715;DHT22;20043;50.998;4.754;2022-11-20T05:32:23;6.80;99.90
33715;DHT22;20043;50.998;4.754;2022-11-20T05:34:53;6.70;99.90
33715;DHT22;20043;50.998;4.754;2022-11-20T05:37:19;6.80;99.90
33715;DHT22;20043;50.998;4.754;2022-11-20T05:39:44;6.90;99.90
33715;DHT22;20043;50.998;4.754;2022-11-20T05:42:10;6.90;99.90
33715;DHT22;20043;50.998;4.754;2022-11-20T05:44:53;6.90;99.90
33715;DHT22;20043;50.998;4.754;2022-11-20T05:47:19;6.70;99.90
33715;DHT22;20043;50.998;4.754;2022-11-20T05:49:44;6.70;99.90
33715;DHT22;20043;50.998;4.754;2022-11-20T05:52:10;6.60;99.90
33715;DHT22;20043;50.998;4.754;2022-11-20T05:54:35;6.60;99.90
33715;DHT22;20043;50.998;4.754;2022-11-20T05:57:01;6.50;99.90
33715;DHT22;20043;50.998;4.754;2022-11-20T05:59:26;6.40;99.90
33715;DHT22;20043;50.998;4.754;2022-11-20T06:01:52;6.40;99.90
33715;DHT22;20043;50.998;4.754;2022-11-20T06:04:17;6.40;99.90
33715;DHT22;20043;50.998;4.754;2022-11-20T06:06:43;6.40;99.90
33715;DHT22;20043;50.998;4.754;2022-11-20T06:09:08;6.30;99.90
33715;DHT22;20043;50.998;4.754;2022-11-20T06:11:33;6.40;99.90
33715;DHT22;20043;50.998;4.754;2022-11-20T06:13:59;6.20;99.90
33715;DHT22;20043;50.998;4.754;2022-11-20T06:16:24;6.10;99.90
33715;DHT22;20043;50.998;4.754;2022-11-20T06:18:50;6.10;99.90
33715;DHT22;20043;50.998;4.754;2022-11-20T06:21:19;6.10;99.90
33715;DHT22;20043;50.998;4.754;2022-11-20T06:23:45;6.20;99.90
33715;DHT22;20043;50.998;4.754;2022-11-20T06:26:21;6.20;99.90
33715;DHT22;20043;50.998;4.754;2022-11-20T06:28:47;6.30;99.90
33715;DHT22;20043;50.998;4.754;2022-11-20T06:31:13;6.30;99.90
33715;DHT22;20043;50.998;4.754;2022-11-20T06:33:39;6.30;99.90
33715;DHT22;20043;50.998;4.754;2022-11-20T06:36:05;6.30;99.90
33715;DHT22;20043;50.998;4.754;2022-11-20T06:38:31;6.30;99.90
33715;DHT22;20043;50.998;4.754;2022-11-20T06:40:56;6.30;99.90
33715;DHT22;20043;50.998;4.754;2022-11-20T06:43:22;6.30;99.90
33715;DHT22;20043;50.998;4.754;2022-11-20T06:45:51;6.20;99.90
33715;DHT22;20043;50.998;4.754;2022-11-20T06:48:17;6.20;99.90
33715;DHT22;20043;50.998;4.754;2022-11-20T06:50:42;6.10;99.90
33715;DHT22;20043;50.998;4.754;2022-11-20T06:53:08;6.00;99.90
33715;DHT22;20043;50.998;4.754;2022-11-20T06:55:33;6.00;99.90
33715;DHT22;20043;50.998;4.754;2022-11-20T06:57:58;6.10;99.90
33715;DHT22;20043;50.998;4.754;2022-11-20T07:00:24;6.10;99.90
33715;DHT22;20043;50.998;4.754;2022-11-20T07:02:49;5.90;99.90
33715;DHT22;20043;50.998;4.754;2022-11-20T07:05:15;5.90;99.90
33715;DHT22;20043;50.998;4.754;2022-11-20T07:07:41;6.00;99.90
33715;DHT22;20043;50.998;4.754;2022-11-20T07:10:06;6.10;99.90
33715;DHT22;20043;50.998;4.754;2022-11-20T07:12:32;6.20;99.90
33715;DHT22;20043;50.998;4.754;2022-11-20T07:14:57;6.20;99.90
33715;DHT22;20043;50.998;4.754;2022-11-20T07:17:23;6.30;99.90
33715;DHT22;20043;50.998;4.754;2022-11-20T07:19:48;6.40;99.90
33715;DHT22;20043;50.998;4.754;2022-11-20T07:22:14;6.40;99.90
33715;DHT22;20043;50.998;4.754;2022-11-20T07:24:39;6.40;99.90
33715;DHT22;20043;50.998;4.754;2022-11-20T07:27:05;6.50;99.90
33715;DHT22;20043;50.998;4.754;2022-11-20T07:29:30;6.50;99.90
33715;DHT22;20043;50.998;4.754;2022-11-20T07:31:56;6.40;99.90
33715;DHT22;20043;50.998;4.754;2022-11-20T07:34:22;6.50;99.90
33715;DHT22;20043;50.998;4.754;2022-11-20T07:36:47;6.60;99.90
33715;DHT22;20043;50.998;4.754;2022-11-20T07:39:13;6.60;99.90
33715;DHT22;20043;50.998;4.754;2022-11-20T07:41:38;6.70;99.90
33715;DHT22;20043;50.998;4.754;2022-11-20T07:44:04;6.80;99.90
33715;DHT22;20043;50.998;4.754;2022-11-20T07:46:29;6.90;99.90
33715;DHT22;20043;50.998;4.754;2022-11-20T07:48:55;6.90;99.90
33715;DHT22;20043;50.998;4.754;2022-11-20T07:51:20;6.90;99.90
33715;DHT22;20043;50.998;4.754;2022-11-20T07:53:46;6.90;99.90
33715;DHT22;20043;50.998;4.754;2022-11-20T07:56:11;7.00;99.90
33715;DHT22;20043;50.998;4.754;2022-11-20T07:58:39;7.00;99.90
33715;DHT22;20043;50.998;4.754;2022-11-20T08:01:05;7.00;99.90
33715;DHT22;20043;50.998;4.754;2022-11-20T08:03:31;7.10;99.90
33715;DHT22;20043;50.998;4.754;2022-11-20T08:05:59;7.10;99.90
33715;DHT22;20043;50.998;4.754;2022-11-20T08:08:28;7.20;99.90
33715;DHT22;20043;50.998;4.754;2022-11-20T08:10:54;7.20;99.90
33715;DHT22;20043;50.998;4.754;2022-11-20T08:13:41;7.10;99.90
33715;DHT22;20043;50.998;4.754;2022-11-20T08:16:25;7.20;99.90
33715;DHT22;20043;50.998;4.754;2022-11-20T08:18:51;7.30;99.90
33715;DHT22;20043;50.998;4.754;2022-11-20T08:21:16;7.20;99.90
33715;DHT22;20043;50.998;4.754;2022-11-20T08:23:41;7.30;99.90
33715;DHT22;20043;50.998;4.754;2022-11-20T08:26:07;7.40;99.90
33715;DHT22;20043;50.998;4.754;2022-11-20T08:28:32;7.50;99.90
33715;DHT22;20043;50.998;4.754;2022-11-20T08:30:59;7.40;99.90
33715;DHT22;20043;50.998;4.754;2022-11-20T08:33:24;7.40;99.90
33715;DHT22;20043;50.998;4.754;2022-11-20T08:35:50;7.40;99.90
33715;DHT22;20043;50.998;4.754;2022-11-20T08:38:15;7.50;99.90
33715;DHT22;20043;50.998;4.754;2022-11-20T08:40:41;7.50;99.90
33715;DHT22;20043;50.998;4.754;2022-11-20T08:43:26;7.50;99.90
33715;DHT22;20043;50.998;4.754;2022-11-20T08:45:52;7.60;99.90
33715;DHT22;20043;50.998;4.754;2022-11-20T08:48:17;7.70;99.90
33715;DHT22;20043;50.998;4.754;2022-11-20T08:50:42;7.80;99.90
33715;DHT22;20043;50.998;4.754;2022-11-20T08:53:08;7.90;99.90
33715;DHT22;20043;50.998;4.754;2022-11-20T08:55:33;7.70;99.90
33715;DHT22;20043;50.998;4.754;2022-11-20T08:58:05;7.60;99.90
33715;DHT22;20043;50.998;4.754;2022-11-20T09:00:31;7.40;99.90
33715;DHT22;20043;50.998;4.754;2022-11-20T09:02:57;7.60;99.90
33715;DHT22;20043;50.998;4.754;2022-11-20T09:05:24;7.60;99.90
33715;DHT22;20043;50.998;4.754;2022-11-20T09:07:49;7.70;99.90
33715;DHT22;20043;50.998;4.754;2022-11-20T09:10:15;7.80;99.90
33715;DHT22;20043;50.998;4.754;2022-11-20T09:12:40;8.00;99.90
33715;DHT22;20043;50.998;4.754;2022-11-20T09:15:06;8.00;99.90
33715;DHT22;20043;50.998;4.754;2022-11-20T09:17:31;7.90;99.90
33715;DHT22;20043;50.998;4.754;2022-11-20T09:19:57;7.80;99.90
33715;DHT22;20043;50.998;4.754;2022-11-20T09:22:22;8.00;99.90
33715;DHT22;20043;50.998;4.754;2022-11-20T09:24:48;8.00;99.90
33715;DHT22;20043;50.998;4.754;2022-11-20T09:27:14;8.20;99.90
33715;DHT22;20043;50.998;4.754;2022-11-20T09:29:39;8.20;99.90
33715;DHT22;20043;50.998;4.754;2022-11-20T09:32:05;8.20;99.90
33715;DHT22;20043;50.998;4.754;2022-11-20T09:34:31;8.10;99.90
33715;DHT22;20043;50.998;4.754;2022-11-20T09:36:56;8.00;99.90
33715;DHT22;20043;50.998;4.754;2022-11-20T09:39:22;8.10;99.90
33715;DHT22;20043;50.998;4.754;2022-11-20T09:42:04;8.10;99.90
33715;DHT22;20043;50.998;4.754;2022-11-20T09:44:40;8.30;99.90
33715;DHT22;20043;50.998;4.754;2022-11-20T09:54:43;8.40;99.90
33715;DHT22;20043;50.998;4.754;2022-11-20T09:57:13;8.50;99.90
33715;DHT22;20043;50.998;4.754;2022-11-20T09:59:40;8.50;99.90
33715;DHT22;20043;50.998;4.754;2022-11-20T10:04:38;8.50;99.90
33715;DHT22;20043;50.998;4.754;2022-11-20T10:07:12;8.70;99.90
33715;DHT22;20043;50.998;4.754;2022-11-20T10:09:40;8.80;99.90
33715;DHT22;20043;50.998;4.754;2022-11-20T10:12:18;8.90;99.90
33715;DHT22;20043;50.998;4.754;2022-11-20T10:15:00;9.00;99.90
33715;DHT22;20043;50.998;4.754;2022-11-20T10:25:30;9.20;99.90
33715;DHT22;20043;50.998;4.754;2022-11-20T10:28:15;9.10;99.90
33715;DHT22;20043;50.998;4.754;2022-11-20T10:30:43;9.00;99.90
33715;DHT22;20043;50.998;4.754;2022-11-20T10:33:16;9.10;99.90
33715;DHT22;20043;50.998;4.754;2022-11-20T10:35:44;9.20;99.90
33715;DHT22;20043;50.998;4.754;2022-11-20T10:38:18;9.20;99.90
33715;DHT22;20043;50.998;4.754;2022-11-20T10:40:45;9.30;99.90
33715;DHT22;20043;50.998;4.754;2022-11-20T10:43:45;9.30;99.90
33715;DHT22;20043;50.998;4.754;2022-11-20T10:46:05;9.30;99.90
33715;DHT22;20043;50.998;4.754;2022-11-20T10:48:33;9.20;99.90
33715;DHT22;20043;50.998;4.754;2022-11-20T10:53:40;9.40;99.90
33715;DHT22;20043;50.998;4.754;2022-11-20T10:56:11;9.50;99.90
33715;DHT22;20043;50.998;4.754;2022-11-20T10:58:45;9.70;99.90
33715;DHT22;20043;50.998;4.754;2022-11-20T11:01:17;9.80;99.90
33715;DHT22;20043;50.998;4.754;2022-11-20T11:03:43;9.80;99.90
33715;DHT22;20043;50.998;4.754;2022-11-20T11:08:37;10.00;99.90
33715;DHT22;20043;50.998;4.754;2022-11-20T11:11:09;10.00;99.90
33715;DHT22;20043;50.998;4.754;2022-11-20T11:13:40;10.00;99.90
33715;DHT22;20043;50.998;4.754;2022-11-20T11:16:06;10.10;99.90
33715;DHT22;20043;50.998;4.754;2022-11-20T11:18:42;10.20;99.90
33715;DHT22;20043;50.998;4.754;2022-11-20T11:21:08;10.30;99.90
33715;DHT22;20043;50.998;4.754;2022-11-20T11:26:00;10.40;99.90
33715;DHT22;20043;50.998;4.754;2022-11-20T11:28:26;10.40;99.90
33715;DHT22;20043;50.998;4.754;2022-11-20T11:30:53;10.40;99.90
33715;DHT22;20043;50.998;4.754;2022-11-20T11:33:20;10.50;99.90
33715;DHT22;20043;50.998;4.754;2022-11-20T11:35:56;10.60;99.90
33715;DHT22;20043;50.998;4.754;2022-11-20T11:38:34;10.70;99.90
33715;DHT22;20043;50.998;4.754;2022-11-20T11:41:00;10.90;99.90
33715;DHT22;20043;50.998;4.754;2022-11-20T11:43:26;10.80;99.90
33715;DHT22;20043;50.998;4.754;2022-11-20T11:46:23;10.90;99.90
33715;DHT22;20043;50.998;4.754;2022-11-20T11:49:00;11.10;99.90
33715;DHT22;20043;50.998;4.754;2022-11-20T11:51:36;11.10;99.90
33715;DHT22;20043;50.998;4.754;2022-11-20T11:54:05;11.10;99.90
33715;DHT22;20043;50.998;4.754;2022-11-20T11:56:35;11.10;99.90
33715;DHT22;20043;50.998;4.754;2022-11-20T11:59:02;11.20;99.90
33715;DHT22;20043;50.998;4.754;2022-11-20T12:01:31;11.20;99.90
33715;DHT22;20043;50.998;4.754;2022-11-20T12:06:27;11.00;99.90
33715;DHT22;20043;50.998;4.754;2022-11-20T12:09:01;11.00;99.90
33715;DHT22;20043;50.998;4.754;2022-11-20T12:14:18;10.80;99.90
33715;DHT22;20043;50.998;4.754;2022-11-20T12:16:49;10.60;99.90
33715;DHT22;20043;50.998;4.754;2022-11-20T12:19:15;10.60;99.90
33715;DHT22;20043;50.998;4.754;2022-11-20T12:34:32;10.30;99.90
33715;DHT22;20043;50.998;4.754;2022-11-20T12:37:10;10.20;99.90
33715;DHT22;20043;50.998;4.754;2022-11-20T12:39:41;10.00;99.90
33715;DHT22;20043;50.998;4.754;2022-11-20T12:45:17;10.20;99.90
33715;DHT22;20043;50.998;4.754;2022-11-20T12:53:42;9.70;99.90
33715;DHT22;20043;50.998;4.754;2022-11-20T12:58:31;9.50;99.90
33715;DHT22;20043;50.998;4.754;2022-11-20T13:01:02;9.60;99.90
33715;DHT22;20043;50.998;4.754;2022-11-20T13:03:42;9.70;99.90
33715;DHT22;20043;50.998;4.754;2022-11-20T13:06:16;9.70;99.90
33715;DHT22;20043;50.998;4.754;2022-11-20T13:08:48;9.80;99.90
33715;DHT22;20043;50.998;4.754;2022-11-20T13:11:18;9.70;99.90
33715;DHT22;20043;50.998;4.754;2022-11-20T13:13:49;9.60;99.90
33715;DHT22;20043;50.998;4.754;2022-11-20T13:16:23;9.50;99.90
33715;DHT22;20043;50.998;4.754;2022-11-20T13:18:51;9.60;99.90
33715;DHT22;20043;50.998;4.754;2022-11-20T13:21:50;9.50;99.90
33715;DHT22;20043;50.998;4.754;2022-11-20T13:26:43;9.60;99.90
33715;DHT22;20043;50.998;4.754;2022-11-20T13:29:10;9.50;99.90
33715;DHT22;20043;50.998;4.754;2022-11-20T13:31:37;9.60;99.90
33715;DHT22;20043;50.998;4.754;2022-11-20T13:34:05;9.70;99.90
33715;DHT22;20043;50.998;4.754;2022-11-20T13:36:32;9.60;99.90
33715;DHT22;20043;50.998;4.754;2022-11-20T13:38:57;9.70;99.90
33715;DHT22;20043;50.998;4.754;2022-11-20T13:44:04;9.90;99.90
33715;DHT22;20043;50.998;4.754;2022-11-20T13:46:41;10.00;99.90
33715;DHT22;20043;50.998;4.754;2022-11-20T13:49:09;10.00;99.90
33715;DHT22;20043;50.998;4.754;2022-11-20T13:54:28;10.10;99.90
33715;DHT22;20043;50.998;4.754;2022-11-20T13:57:03;10.20;99.90
33715;DHT22;20043;50.998;4.754;2022-11-20T13:59:43;10.10;99.90
33715;DHT22;20043;50.998;4.754;2022-11-20T14:02:14;10.10;99.90
33715;DHT22;20043;50.998;4.754;2022-11-20T14:04:42;10.30;99.90
33715;DHT22;20043;50.998;4.754;2022-11-20T14:07:08;10.00;99.90
33715;DHT22;20043;50.998;4.754;2022-11-20T14:09:34;10.00;99.90
33715;DHT22;20043;50.998;4.754;2022-11-20T14:12:01;10.00;99.90
33715;DHT22;20043;50.998;4.754;2022-11-20T14:14:27;10.10;99.90
33715;DHT22;20043;50.998;4.754;2022-11-20T14:17:03;10.00;99.90
33715;DHT22;20043;50.998;4.754;2022-11-20T14:19:29;9.90;99.90
33715;DHT22;20043;50.998;4.754;2022-11-20T14:22:09;9.80;99.90
33715;DHT22;20043;50.998;4.754;2022-11-20T14:24:35;9.70;99.90
33715;DHT22;20043;50.998;4.754;2022-11-20T14:27:00;9.80;99.90
33715;DHT22;20043;50.998;4.754;2022-11-20T14:29:28;9.70;99.90
33715;DHT22;20043;50.998;4.754;2022-11-20T14:31:54;9.60;99.90
33715;DHT22;20043;50.998;4.754;2022-11-20T14:34:39;9.30;99.90
33715;DHT22;20043;50.998;4.754;2022-11-20T14:37:06;9.40;99.90
33715;DHT22;20043;50.998;4.754;2022-11-20T14:39:36;9.30;99.90
33715;DHT22;20043;50.998;4.754;2022-11-20T14:42:15;9.20;99.90
33715;DHT22;20043;50.998;4.754;2022-11-20T14:44:41;9.00;99.90
33715;DHT22;20043;50.998;4.754;2022-11-20T14:47:08;8.90;99.90
33715;DHT22;20043;50.998;4.754;2022-11-20T14:49:36;8.90;99.90
33715;DHT22;20043;50.998;4.754;2022-11-20T14:52:09;9.00;99.90
33715;DHT22;20043;50.998;4.754;2022-11-20T14:54:43;9.00;99.90
33715;DHT22;20043;50.998;4.754;2022-11-20T14:57:18;9.00;99.90
33715;DHT22;20043;50.998;4.754;2022-11-20T14:59:44;9.00;99.90
33715;DHT22;20043;50.998;4.754;2022-11-20T15:02:10;9.00;99.90
33715;DHT22;20043;50.998;4.754;2022-11-20T15:07:10;9.00;99.90
33715;DHT22;20043;50.998;4.754;2022-11-20T15:09:36;9.00;99.90
33715;DHT22;20043;50.998;4.754;2022-11-20T15:12:02;9.10;99.90
33715;DHT22;20043;50.998;4.754;2022-11-20T15:14:28;9.10;99.90
33715;DHT22;20043;50.998;4.754;2022-11-20T15:16:55;9.20;99.90
33715;DHT22;20043;50.998;4.754;2022-11-20T15:19:24;9.10;99.90
33715;DHT22;20043;50.998;4.754;2022-11-20T15:21:50;9.10;99.90
33715;DHT22;20043;50.998;4.754;2022-11-20T15:24:15;9.10;99.90
33715;DHT22;20043;50.998;4.754;2022-11-20T15:26:41;9.00;99.90
33715;DHT22;20043;50.998;4.754;2022-11-20T15:29:14;8.80;99.90
33715;DHT22;20043;50.998;4.754;2022-11-20T15:31:39;8.80;99.90
33715;DHT22;20043;50.998;4.754;2022-11-20T15:34:16;8.90;99.90
33715;DHT22;20043;50.998;4.754;2022-11-20T15:36:42;9.00;99.90
33715;DHT22;20043;50.998;4.754;2022-11-20T15:39:07;9.10;99.90
33715;DHT22;20043;50.998;4.754;2022-11-20T15:41:36;9.20;99.90
33715;DHT22;20043;50.998;4.754;2022-11-20T15:44:02;9.30;99.90
33715;DHT22;20043;50.998;4.754;2022-11-20T15:46:29;9.20;99.90
33715;DHT22;20043;50.998;4.754;2022-11-20T15:48:56;9.30;99.90
33715;DHT22;20043;50.998;4.754;2022-11-20T15:51:31;9.30;99.90
33715;DHT22;20043;50.998;4.754;2022-11-20T15:53:58;9.30;99.90
33715;DHT22;20043;50.998;4.754;2022-11-20T15:56:24;9.30;99.90
33715;DHT22;20043;50.998;4.754;2022-11-20T15:58:49;9.20;99.90
33715;DHT22;20043;50.998;4.754;2022-11-20T16:01:16;9.20;99.90
33715;DHT22;20043;50.998;4.754;2022-11-20T16:03:42;9.40;99.90
33715;DHT22;20043;50.998;4.754;2022-11-20T16:06:07;9.40;99.90
33715;DHT22;20043;50.998;4.754;2022-11-20T16:08:33;9.30;99.90
33715;DHT22;20043;50.998;4.754;2022-11-20T16:10:59;9.30;99.90
33715;DHT22;20043;50.998;4.754;2022-11-20T16:13:24;9.20;99.90
33715;DHT22;20043;50.998;4.754;2022-11-20T16:16:17;9.20;99.90
33715;DHT22;20043;50.998;4.754;2022-11-20T16:18:44;9.30;99.90
33715;DHT22;20043;50.998;4.754;2022-11-20T16:21:12;9.30;99.90
33715;DHT22;20043;50.998;4.754;2022-11-20T16:23:41;9.30;99.90
33715;DHT22;20043;50.998;4.754;2022-11-20T16:26:11;9.30;99.90
33715;DHT22;20043;50.998;4.754;2022-11-20T16:28:37;9.40;99.90
33715;DHT22;20043;50.998;4.754;2022-11-20T16:31:09;9.40;99.90
33715;DHT22;20043;50.998;4.754;2022-11-20T16:33:34;9.40;99.90
33715;DHT22;20043;50.998;4.754;2022-11-20T16:36:09;9.50;99.90
33715;DHT22;20043;50.998;4.754;2022-11-20T16:38:35;9.50;99.90
33715;DHT22;20043;50.998;4.754;2022-11-20T16:41:01;9.50;99.90
33715;DHT22;20043;50.998;4.754;2022-11-20T16:43:27;9.50;99.90
33715;DHT22;20043;50.998;4.754;2022-11-20T16:45:52;9.40;99.90
33715;DHT22;20043;50.998;4.754;2022-11-20T16:48:18;9.40;99.90
33715;DHT22;20043;50.998;4.754;2022-11-20T16:50:50;9.40;99.90
33715;DHT22;20043;50.998;4.754;2022-11-20T16:53:16;9.50;99.90
33715;DHT22;20043;50.998;4.754;2022-11-20T16:55:42;9.40;99.90
33715;DHT22;20043;50.998;4.754;2022-11-20T16:58:07;9.40;99.90
33715;DHT22;20043;50.998;4.754;2022-11-20T17:00:37;9.50;99.90